createdAt,value
2022-12-14T00:01:23.082Z,98870.09
2022-12-14T00:04:23.522Z,98867.03
2022-12-14T00:07:19.920Z,98855.03
2022-12-14T00:10:09.805Z,98865.13
2022-12-14T00:13:08.923Z,98856.09
2022-12-14T00:16:00.252Z,98863.91
2022-12-14T00:18:56.004Z,98848.78
2022-12-14T00:21:46.130Z,98822.47
2022-12-14T00:25:15.403Z,98820.97
2022-12-14T00:28:08.255Z,98818.28
2022-12-14T00:31:53.076Z,98824.06
2022-12-14T00:34:13.071Z,98842.31
2022-12-14T00:37:13.013Z,98835.31
2022-12-14T00:40:19.583Z,98821.00
2022-12-14T00:43:17.903Z,98812.09
2022-12-14T00:46:07.235Z,98811.69
2022-12-14T00:49:10.355Z,98831.84
2022-12-14T00:52:05.255Z,98818.28
2022-12-14T00:55:04.335Z,98822.97
2022-12-14T00:58:08.580Z,98819.88
2022-12-14T01:01:07.108Z,98808.66
2022-12-14T01:04:24.489Z,98793.13
2022-12-14T01:07:20.478Z,98826.09
2022-12-14T01:10:17.794Z,98795.50
2022-12-14T01:13:13.870Z,98826.13
2022-12-14T01:16:20.276Z,98819.91
2022-12-14T01:19:40.860Z,98823.41
2022-12-14T01:22:29.099Z,98807.16
2022-12-14T01:25:29.809Z,98797.06
2022-12-14T01:28:20.508Z,98801.72
2022-12-14T01:31:24.775Z,98793.59
2022-12-14T01:34:13.060Z,98800.97
2022-12-14T01:37:08.116Z,98802.88
2022-12-14T01:40:03.897Z,98798.25
2022-12-14T01:42:56.617Z,98798.22
2022-12-14T01:45:47.397Z,98772.28
2022-12-14T01:48:36.670Z,98787.00
2022-12-14T01:51:38.824Z,98779.66
2022-12-14T01:54:34.130Z,98758.72
2022-12-14T01:57:34.971Z,98757.59
2022-12-14T02:00:31.715Z,98735.53
2022-12-14T02:03:42.494Z,98745.59
2022-12-14T02:06:36.751Z,98745.97
2022-12-14T02:09:34.433Z,98756.44
2022-12-14T02:12:40.942Z,98734.75
2022-12-14T02:15:38.066Z,98728.53
2022-12-14T02:18:40.690Z,98723.50
2022-12-14T02:22:12.148Z,98723.16
2022-12-14T02:26:03.632Z,98705.75
2022-12-14T02:29:48.806Z,98701.06
2022-12-14T02:33:06.103Z,98694.91
2022-12-14T02:36:45.161Z,98686.75
2022-12-14T02:40:12.194Z,98691.03
2022-12-14T02:43:47.531Z,98690.63
2022-12-14T02:47:17.644Z,98690.66
2022-12-14T02:50:27.159Z,98693.34
2022-12-14T02:53:49.480Z,98699.94
2022-12-14T02:59:56.906Z,98688.31
2022-12-14T03:02:48.496Z,98664.34
2022-12-14T03:05:36.813Z,98675.94
2022-12-14T03:08:29.782Z,98677.50
2022-12-14T03:11:32.208Z,98667.81
2022-12-14T03:14:46.414Z,98644.22
2022-12-14T03:17:34.915Z,98657.75
2022-12-14T03:20:28.983Z,98653.88
2022-12-14T03:23:30.587Z,98651.16
2022-12-14T03:26:47.716Z,98629.88
2022-12-14T03:30:06.658Z,98625.22
2022-12-14T03:33:01.416Z,98636.41
2022-12-14T03:36:11.509Z,98618.63
2022-12-14T03:39:05.474Z,98615.88
2022-12-14T03:42:20.303Z,98611.22
2022-12-14T03:45:22.769Z,98612.38
2022-12-14T03:48:58.314Z,98612.38
2022-12-14T03:52:07.293Z,98608.91
2022-12-14T03:55:23.162Z,98603.47
2022-12-14T03:58:29.201Z,98614.69
2022-12-14T04:01:52.765Z,98603.41
2022-12-14T04:05:30.990Z,98606.81
2022-12-14T04:08:52.768Z,98600.69
2022-12-14T04:12:24.717Z,98605.66
2022-12-14T04:15:39.370Z,98596.06
2022-12-14T04:18:59.541Z,98597.56
2022-12-14T04:22:05.053Z,98600.66
2022-12-14T04:26:00.593Z,98589.44
2022-12-14T04:29:28.399Z,98583.28
2022-12-14T04:32:27.497Z,98586.34
2022-12-14T04:35:33.096Z,98591.78
2022-12-14T04:38:34.257Z,98583.22
2022-12-14T04:41:39.503Z,98590.59
2022-12-14T04:45:19.444Z,98591.31
2022-12-14T04:48:25.463Z,98604.00
2022-12-14T04:51:34.239Z,98586.94
2022-12-14T04:54:52.917Z,98595.88
2022-12-14T04:57:47.199Z,98602.06
2022-12-14T05:01:11.883Z,98570.75
2022-12-14T05:04:27.573Z,98583.47
2022-12-14T05:07:58.470Z,98600.94
2022-12-14T05:11:30.470Z,98596.16
2022-12-14T05:15:07.872Z,98585.44
2022-12-14T05:18:19.792Z,98592.72
2022-12-14T05:21:52.385Z,98590.34
2022-12-14T05:28:30.761Z,98576.34
2022-12-14T05:35:07.566Z,98565.84
2022-12-14T05:38:04.511Z,98579.56
2022-12-14T05:41:02.237Z,98570.47
2022-12-14T05:44:03.058Z,98564.59
2022-12-14T05:46:52.512Z,98559.88
2022-12-14T05:49:41.695Z,98559.84
2022-12-14T05:52:39.593Z,98540.94
2022-12-14T05:55:55.415Z,98532.22
2022-12-14T06:02:06.193Z,98530.50
2022-12-14T06:05:11.221Z,98513.38
2022-12-14T06:08:07.125Z,98500.31
2022-12-14T06:11:14.008Z,98498.72
2022-12-14T06:14:40.361Z,98518.66
2022-12-14T06:21:47.068Z,98480.53
2022-12-14T06:24:35.562Z,98481.00
2022-12-14T06:27:27.007Z,98485.66
2022-12-14T06:30:16.288Z,98481.38
2022-12-14T06:33:08.843Z,98482.56
2022-12-14T06:36:26.680Z,98472.16
2022-12-14T06:39:17.416Z,98478.31
2022-12-14T06:45:05.846Z,98463.75
2022-12-14T06:47:57.536Z,98443.72
2022-12-14T06:50:50.360Z,98458.31
2022-12-14T06:53:38.939Z,98452.97
2022-12-14T06:56:28.557Z,98444.84
2022-12-14T06:59:18.051Z,98461.78
2022-12-14T07:02:15.068Z,98458.59
2022-12-14T07:05:11.122Z,98443.91
2022-12-14T07:08:24.451Z,98436.56
2022-12-14T07:11:15.302Z,98417.56
2022-12-14T07:14:06.517Z,98432.16
2022-12-14T07:16:58.200Z,98420.06
2022-12-14T07:19:51.415Z,98440.22
2022-12-14T07:22:41.241Z,98417.16
2022-12-14T07:25:35.881Z,98423.38
2022-12-14T07:28:37.178Z,98410.56
2022-12-14T07:31:52.397Z,98398.00
2022-12-14T07:34:57.534Z,98407.19
2022-12-14T07:41:45.435Z,98413.22
2022-12-14T07:45:35.735Z,98399.81
2022-12-14T07:49:22.027Z,98428.06
2022-12-14T07:52:42.780Z,98425.53
2022-12-14T07:58:46.916Z,98432.13
2022-12-14T08:01:42.390Z,98417.41
2022-12-14T08:04:32.430Z,98420.81
2022-12-14T08:07:32.363Z,98429.84
2022-12-14T08:10:23.350Z,98429.38
2022-12-14T08:13:11.725Z,98457.06
2022-12-14T08:16:11.675Z,98462.28
2022-12-14T08:19:01.587Z,98470.25
2022-12-14T08:21:52.019Z,98463.88
2022-12-14T08:25:08.141Z,98462.94
2022-12-14T08:28:06.174Z,98449.75
2022-12-14T08:30:57.241Z,98450.28
2022-12-14T08:33:49.500Z,98463.25
2022-12-14T08:36:49.008Z,98459.84
2022-12-14T08:39:47.767Z,98467.13
2022-12-14T08:42:38.224Z,98474.50
2022-12-14T08:45:33.267Z,98479.53
2022-12-14T08:48:21.841Z,98477.03
2022-12-14T08:51:14.719Z,98466.03
2022-12-14T08:54:07.144Z,98469.63
2022-12-14T08:57:08.011Z,98442.50
2022-12-14T09:00:01.609Z,98445.06
2022-12-14T09:02:55.331Z,98453.69
2022-12-14T09:06:15.843Z,98457.41
2022-12-14T09:09:15.998Z,98448.94
2022-12-14T09:12:10.267Z,98452.84
2022-12-14T09:53:05.252Z,98451.34
2022-12-14T09:56:15.779Z,98439.44
2022-12-14T09:59:25.017Z,98426.91
2022-12-14T10:03:07.128Z,98423.53
2022-12-14T10:06:30.186Z,98448.84
2022-12-14T10:10:01.511Z,98435.25
2022-12-14T10:13:39.132Z,98448.44
2022-12-14T10:17:10.225Z,98428.31
2022-12-14T10:20:16.186Z,98410.16
2022-12-14T10:23:05.829Z,98428.41
2022-12-14T10:26:09.519Z,98427.72
2022-12-14T10:29:23.892Z,98419.28
2022-12-14T10:32:39.832Z,98436.19
2022-12-14T10:35:52.699Z,98424.34
2022-12-14T10:39:09.866Z,98413.19
2022-12-14T10:42:41.815Z,98403.66
2022-12-14T10:45:47.320Z,98419.13
2022-12-14T10:48:56.628Z,98406.72
2022-12-14T10:52:21.358Z,98393.25
2022-12-14T10:55:42.114Z,98392.81
2022-12-14T10:58:31.168Z,98398.72
2022-12-14T11:01:26.879Z,98411.59
2022-12-14T11:04:43.772Z,98410.00
2022-12-14T11:07:37.491Z,98393.78
2022-12-14T11:10:37.649Z,98379.16
2022-12-14T11:13:29.651Z,98404.38
2022-12-14T11:16:38.893Z,98396.41
2022-12-14T11:19:30.495Z,98385.41
2022-12-14T11:22:36.103Z,98384.91
2022-12-14T11:25:42.280Z,98397.41
2022-12-14T11:29:05.951Z,98402.84
2022-12-14T11:32:02.913Z,98379.41
2022-12-14T11:34:59.755Z,98393.44
2022-12-14T11:37:59.286Z,98383.69
2022-12-14T11:40:50.336Z,98390.22
2022-12-14T11:43:42.984Z,98379.34
2022-12-14T11:46:57.429Z,98379.56
2022-12-14T11:49:54.411Z,98371.63
2022-12-14T11:53:18.024Z,98368.88
2022-12-14T11:56:27.736Z,98364.97
2022-12-14T11:59:27.175Z,98370.69
2022-12-14T12:02:32.733Z,98381.94
2022-12-14T12:05:39.812Z,98369.53
2022-12-14T12:08:51.811Z,98377.94
2022-12-14T14:47:58.289Z,98444.03
2022-12-14T14:50:49.247Z,98435.75
2022-12-14T14:53:40.979Z,98429.28
2022-12-14T14:56:46.135Z,98432.84
2022-12-14T14:59:50.967Z,98436.41
2022-12-14T15:03:41.530Z,98450.78
2022-12-14T15:06:44.469Z,98432.97
2022-12-14T15:10:33.946Z,98446.13
2022-12-14T15:13:35.432Z,98458.56
2022-12-14T15:16:59.572Z,98460.03
2022-12-14T15:23:11.803Z,98482.56
2022-12-14T15:26:05.389Z,98486.56
2022-12-14T15:29:19.464Z,98488.09
2022-12-14T15:32:51.481Z,98510.59
2022-12-14T17:45:15.281Z,98642.91
2022-12-14T18:32:04.631Z,98654.47
2022-12-14T18:35:29.497Z,98662.97
2022-12-14T18:38:29.971Z,98662.72
2022-12-14T18:42:16.632Z,98651.13
2022-12-14T18:46:09.665Z,98644.56
2022-12-14T18:49:46.409Z,98670.84
2022-12-14T18:52:48.700Z,98652.25
2022-12-14T18:55:56.796Z,98661.22
2022-12-14T18:59:24.425Z,98658.00
2022-12-14T19:02:26.501Z,98667.00
2022-12-14T19:05:43.719Z,98678.34
2022-12-14T20:10:38.982Z,98719.56
2022-12-14T20:18:21.759Z,98724.94
2022-12-14T20:32:50.339Z,98744.69
2022-12-14T20:48:29.031Z,98749.53
2022-12-14T20:59:09.820Z,98759.78
2022-12-14T21:36:18.023Z,98761.22
2022-12-14T21:44:07.757Z,98773.72
2022-12-14T21:47:49.552Z,98750.69
2022-12-14T21:54:08.375Z,98782.63
2022-12-14T21:57:22.996Z,98777.28
2022-12-14T22:11:37.638Z,98782.44
2022-12-14T22:18:48.437Z,98781.22
2022-12-14T22:25:08.877Z,98803.84
2022-12-14T22:39:21.048Z,98807.00
2022-12-14T22:47:57.097Z,98792.66
2022-12-14T22:51:35.299Z,98810.88
2022-12-14T22:58:01.348Z,98829.34
2022-12-14T23:00:59.063Z,98813.66
2022-12-14T23:04:06.741Z,98815.63
2022-12-14T23:07:13.297Z,98826.91
2022-12-14T23:10:39.451Z,98818.19
2022-12-14T23:14:08.033Z,98841.28
2022-12-14T23:24:40.950Z,98840.41
2022-12-14T23:36:25.693Z,98855.66
2022-12-14T23:39:44.257Z,98852.34
2022-12-14T23:43:50.112Z,98847.00
2022-12-14T23:51:06.745Z,98813.41
2022-12-14T23:54:20.583Z,98822.25
2022-12-14T23:57:31.518Z,98800.50
